sensor_id;sensor_type;location;lat;lon;timestamp;pressure;altitude;pressure_sealevel;temperature;humidity
28167;BME280;15455;53.376;-6.262;2024-03-08T00:01:24;101151.06;;;5.75;100.00
28167;BME280;15455;53.376;-6.262;2024-03-08T00:04:09;101156.25;;;5.75;100.00
28167;BME280;15455;53.376;-6.262;2024-03-08T00:06:55;101159.72;;;5.77;100.00
28167;BME280;15455;53.376;-6.262;2024-03-08T00:09:41;101157.97;;;5.76;100.00
28167;BME280;15455;53.376;-6.262;2024-03-08T00:12:26;101151.06;;;5.75;100.00
28167;BME280;15455;53.376;-6.262;2024-03-08T00:15:14;101150.16;;;5.74;100.00
28167;BME280;15455;53.376;-6.262;2024-03-08T00:18:02;101151.06;;;5.75;100.00
28167;BME280;15455;53.376;-6.262;2024-03-08T00:20:48;101139.81;;;5.74;100.00
28167;BME280;15455;53.376;-6.262;2024-03-08T00:23:34;101139.78;;;5.73;100.00
28167;BME280;15455;53.376;-6.262;2024-03-08T00:26:19;101131.16;;;5.72;100.00
28167;BME280;15455;53.376;-6.262;2024-03-08T00:29:05;101128.53;;;5.71;100.00
28167;BME280;15455;53.376;-6.262;2024-03-08T00:31:53;101113.84;;;5.71;100.00
28167;BME280;15455;53.376;-6.262;2024-03-08T00:34:38;101121.63;;;5.71;100.00
28167;BME280;15455;53.376;-6.262;2024-03-08T00:37:24;101113.81;;;5.70;100.00
28167;BME280;15455;53.376;-6.262;2024-03-08T00:40:10;101111.22;;;5.70;100.00
28167;BME280;15455;53.376;-6.262;2024-03-08T00:42:56;101106.88;;;5.69;100.00
28167;BME280;15455;53.376;-6.262;2024-03-08T00:45:42;101104.25;;;5.67;100.00
28167;BME280;15455;53.376;-6.262;2024-03-08T00:48:28;101106.00;;;5.68;100.00
28167;BME280;15455;53.376;-6.262;2024-03-08T00:51:13;101107.72;;;5.68;100.00
28167;BME280;15455;53.376;-6.262;2024-03-08T00:54:00;101103.34;;;5.65;100.00
28167;BME280;15455;53.376;-6.262;2024-03-08T00:56:46;101099.00;;;5.64;100.00
28167;BME280;15455;53.376;-6.262;2024-03-08T00:59:32;101104.16;;;5.63;100.00
28167;BME280;15455;53.376;-6.262;2024-03-08T01:02:20;101100.66;;;5.61;100.00
28167;BME280;15455;53.376;-6.262;2024-03-08T01:05:08;101098.91;;;5.60;100.00
28167;BME280;15455;53.376;-6.262;2024-03-08T01:07:54;101094.53;;;5.57;100.00
28167;BME280;15455;53.376;-6.262;2024-03-08T01:10:39;101088.41;;;5.53;100.00
28167;BME280;15455;53.376;-6.262;2024-03-08T01:13:25;101091.81;;;5.52;100.00
28167;BME280;15455;53.376;-6.262;2024-03-08T01:16:11;101088.34;;;5.50;100.00
28167;BME280;15455;53.376;-6.262;2024-03-08T01:19:00;101084.81;;;5.48;100.00
28167;BME280;15455;53.376;-6.262;2024-03-08T01:21:47;101084.81;;;5.48;100.00
28167;BME280;15455;53.376;-6.262;2024-03-08T01:24:32;101088.22;;;5.46;100.00
28167;BME280;15455;53.376;-6.262;2024-03-08T01:27:20;101096.88;;;5.46;100.00
28167;BME280;15455;53.376;-6.262;2024-03-08T01:30:06;101086.50;;;5.46;100.00
28167;BME280;15455;53.376;-6.262;2024-03-08T01:32:52;101095.09;;;5.45;100.00
28167;BME280;15455;53.376;-6.262;2024-03-08T01:35:38;101082.97;;;5.43;100.00
28167;BME280;15455;53.376;-6.262;2024-03-08T01:38:27;101086.44;;;5.43;100.00
28167;BME280;15455;53.376;-6.262;2024-03-08T01:41:12;101083.75;;;5.40;100.00
28167;BME280;15455;53.376;-6.262;2024-03-08T01:43:59;101082.06;;;5.41;100.00
28167;BME280;15455;53.376;-6.262;2024-03-08T01:46:45;101081.16;;;5.40;100.00
28167;BME280;15455;53.376;-6.262;2024-03-08T01:49:31;101072.50;;;5.38;100.00
28167;BME280;15455;53.376;-6.262;2024-03-08T01:52:17;101072.50;;;5.38;100.00
28167;BME280;15455;53.376;-6.262;2024-03-08T01:55:06;101067.31;;;5.38;100.00
28167;BME280;15455;53.376;-6.262;2024-03-08T01:57:55;101063.00;;;5.38;100.00
28167;BME280;15455;53.376;-6.262;2024-03-08T02:00:44;101056.97;;;5.38;100.00
28167;BME280;15455;53.376;-6.262;2024-03-08T02:03:30;101051.81;;;5.38;100.00
28167;BME280;15455;53.376;-6.262;2024-03-08T02:06:17;101054.41;;;5.39;100.00
28167;BME280;15455;53.376;-6.262;2024-03-08T02:09:03;101043.25;;;5.41;100.00
28167;BME280;15455;53.376;-6.262;2024-03-08T02:11:51;101038.09;;;5.42;100.00
28167;BME280;15455;53.376;-6.262;2024-03-08T02:14:37;101040.63;;;5.39;100.00
28167;BME280;15455;53.376;-6.262;2024-03-08T02:17:23;101034.56;;;5.40;100.00
28167;BME280;15455;53.376;-6.262;2024-03-08T02:20:09;101026.78;;;5.38;100.00
28167;BME280;15455;53.376;-6.262;2024-03-08T02:22:57;101022.50;;;5.39;100.00
28167;BME280;15455;53.376;-6.262;2024-03-08T02:25:43;101013.00;;;5.39;100.00
28167;BME280;15455;53.376;-6.262;2024-03-08T02:28:28;101010.41;;;5.39;100.00
28167;BME280;15455;53.376;-6.262;2024-03-08T02:31:14;101005.22;;;5.38;100.00
28167;BME280;15455;53.376;-6.262;2024-03-08T02:33:59;101002.63;;;5.38;100.00
28167;BME280;15455;53.376;-6.262;2024-03-08T02:36:45;101000.03;;;5.38;100.00
28167;BME280;15455;53.376;-6.262;2024-03-08T02:39:32;100996.59;;;5.37;100.00
28167;BME280;15455;53.376;-6.262;2024-03-08T02:42:18;100994.00;;;5.37;100.00
28167;BME280;15455;53.376;-6.262;2024-03-08T02:45:03;100989.66;;;5.36;100.00
28167;BME280;15455;53.376;-6.262;2024-03-08T02:47:51;100984.44;;;5.35;100.00
28167;BME280;15455;53.376;-6.262;2024-03-08T02:50:37;100971.50;;;5.35;100.00
28167;BME280;15455;53.376;-6.262;2024-03-08T02:53:22;100973.25;;;5.36;100.00
28167;BME280;15455;53.376;-6.262;2024-03-08T02:56:10;100962.91;;;5.36;100.00
28167;BME280;15455;53.376;-6.262;2024-03-08T02:58:58;100954.25;;;5.35;100.00
28167;BME280;15455;53.376;-6.262;2024-03-08T03:01:43;100957.72;;;5.36;100.00
28167;BME280;15455;53.376;-6.262;2024-03-08T03:04:29;100944.78;;;5.36;100.00
28167;BME280;15455;53.376;-6.262;2024-03-08T03:07:15;100937.84;;;5.35;100.00
28167;BME280;15455;53.376;-6.262;2024-03-08T03:10:00;100930.91;;;5.34;100.00
28167;BME280;15455;53.376;-6.262;2024-03-08T03:12:48;100928.34;;;5.34;100.00
28167;BME280;15455;53.376;-6.262;2024-03-08T03:15:34;100920.56;;;5.34;100.00
28167;BME280;15455;53.376;-6.262;2024-03-08T03:18:20;100911.06;;;5.33;100.00
28167;BME280;15455;53.376;-6.262;2024-03-08T03:21:09;100911.94;;;5.33;100.00
28167;BME280;15455;53.376;-6.262;2024-03-08T03:23:55;100905.03;;;5.34;100.00
28167;BME280;15455;53.376;-6.262;2024-03-08T03:26:41;100905.88;;;5.33;100.00
28167;BME280;15455;53.376;-6.262;2024-03-08T03:29:28;100888.63;;;5.32;100.00
28167;BME280;15455;53.376;-6.262;2024-03-08T03:32:15;100894.66;;;5.32;100.00
28167;BME280;15455;53.376;-6.262;2024-03-08T03:35:04;100891.22;;;5.32;100.00
28167;BME280;15455;53.376;-6.262;2024-03-08T03:37:50;100886.03;;;5.32;100.00
28167;BME280;15455;53.376;-6.262;2024-03-08T03:40:46;100888.59;;;5.30;100.00
28167;BME280;15455;53.376;-6.262;2024-03-08T03:43:34;100877.38;;;5.31;100.00
28167;BME280;15455;53.376;-6.262;2024-03-08T03:46:19;100882.53;;;5.30;100.00
28167;BME280;15455;53.376;-6.262;2024-03-08T03:49:05;100872.16;;;5.30;100.00
28167;BME280;15455;53.376;-6.262;2024-03-08T03:51:50;100871.31;;;5.29;100.00
28167;BME280;15455;53.376;-6.262;2024-03-08T03:54:36;100868.69;;;5.28;100.00
28167;BME280;15455;53.376;-6.262;2024-03-08T03:57:22;100869.56;;;5.28;100.00
28167;BME280;15455;53.376;-6.262;2024-03-08T04:00:08;100864.31;;;5.25;100.00
28167;BME280;15455;53.376;-6.262;2024-03-08T04:02:58;100860.00;;;5.26;100.00
28167;BME280;15455;53.376;-6.262;2024-03-08T04:05:46;100861.69;;;5.24;100.00
28167;BME280;15455;53.376;-6.262;2024-03-08T04:08:31;100856.53;;;5.24;100.00
28167;BME280;15455;53.376;-6.262;2024-03-08T04:11:19;100849.53;;;5.19;100.00
28167;BME280;15455;53.376;-6.262;2024-03-08T04:14:04;100844.31;;;5.16;100.00
28167;BME280;15455;53.376;-6.262;2024-03-08T04:16:50;100845.09;;;5.14;100.00
28167;BME280;15455;53.376;-6.262;2024-03-08T04:19:36;100837.28;;;5.11;100.00
28167;BME280;15455;53.376;-6.262;2024-03-08T04:22:21;100847.59;;;5.09;100.00
28167;BME280;15455;53.376;-6.262;2024-03-08T04:25:08;100850.94;;;5.05;100.00
28167;BME280;15455;53.376;-6.262;2024-03-08T04:27:54;100850.94;;;5.05;100.00
28167;BME280;15455;53.376;-6.262;2024-03-08T04:30:40;100845.69;;;5.00;100.00
28167;BME280;15455;53.376;-6.262;2024-03-08T04:33:26;100848.22;;;4.97;100.00
28167;BME280;15455;53.376;-6.262;2024-03-08T04:36:12;100836.91;;;4.94;100.00
28167;BME280;15455;53.376;-6.262;2024-03-08T04:38:59;100836.03;;;4.93;100.00
28167;BME280;15455;53.376;-6.262;2024-03-08T04:41:45;100835.19;;;4.93;100.00
28167;BME280;15455;53.376;-6.262;2024-03-08T04:44:31;100828.22;;;4.90;100.00
28167;BME280;15455;53.376;-6.262;2024-03-08T04:47:16;100818.59;;;4.83;100.00
28167;BME280;15455;53.376;-6.262;2024-03-08T04:50:03;100824.50;;;4.77;100.00
28167;BME280;15455;53.376;-6.262;2024-03-08T04:52:49;100831.22;;;4.70;100.00
28167;BME280;15455;53.376;-6.262;2024-03-08T04:55:35;100822.53;;;4.67;100.00
28167;BME280;15455;53.376;-6.262;2024-03-08T04:58:21;100831.91;;;4.63;100.00
28167;BME280;15455;53.376;-6.262;2024-03-08T05:01:07;100823.28;;;4.61;100.00
28167;BME280;15455;53.376;-6.262;2024-03-08T05:03:55;100825.81;;;4.60;100.00
28167;BME280;15455;53.376;-6.262;2024-03-08T05:06:48;100826.66;;;4.59;100.00
28167;BME280;15455;53.376;-6.262;2024-03-08T05:09:34;100827.50;;;4.59;100.00
28167;BME280;15455;53.376;-6.262;2024-03-08T05:12:21;100821.50;;;4.60;100.00
28167;BME280;15455;53.376;-6.262;2024-03-08T05:15:08;100811.19;;;4.60;100.00
28167;BME280;15455;53.376;-6.262;2024-03-08T05:17:54;100810.31;;;4.60;100.00
28167;BME280;15455;53.376;-6.262;2024-03-08T05:20:41;100805.06;;;4.57;100.00
28167;BME280;15455;53.376;-6.262;2024-03-08T05:23:27;100793.84;;;4.56;100.00
28167;BME280;15455;53.376;-6.262;2024-03-08T05:26:13;100801.50;;;4.51;100.00
28167;BME280;15455;53.376;-6.262;2024-03-08T05:28:59;100795.47;;;4.51;100.00
28167;BME280;15455;53.376;-6.262;2024-03-08T05:31:50;100798.00;;;4.48;100.00
28167;BME280;15455;53.376;-6.262;2024-03-08T05:34:35;100798.78;;;4.45;100.00
28167;BME280;15455;53.376;-6.262;2024-03-08T05:37:21;100793.50;;;4.41;100.00
28167;BME280;15455;53.376;-6.262;2024-03-08T05:40:07;100787.34;;;4.35;100.00
28167;BME280;15455;53.376;-6.262;2024-03-08T05:43:01;100780.22;;;4.25;100.00
28167;BME280;15455;53.376;-6.262;2024-03-08T05:45:47;100780.78;;;4.12;100.00
28167;BME280;15455;53.376;-6.262;2024-03-08T05:48:32;100778.81;;;4.02;100.00
28167;BME280;15455;53.376;-6.262;2024-03-08T05:51:18;100776.84;;;3.93;100.00
28167;BME280;15455;53.376;-6.262;2024-03-08T05:54:12;100773.13;;;3.81;100.00
28167;BME280;15455;53.376;-6.262;2024-03-08T05:57:02;100789.19;;;3.71;100.00
28167;BME280;15455;53.376;-6.262;2024-03-08T05:59:47;100778.84;;;3.70;100.00
28167;BME280;15455;53.376;-6.262;2024-03-08T06:02:33;100775.34;;;3.68;100.00
28167;BME280;15455;53.376;-6.262;2024-03-08T06:05:18;100779.50;;;3.62;100.00
28167;BME280;15455;53.376;-6.262;2024-03-08T06:08:04;100776.03;;;3.60;100.00
28167;BME280;15455;53.376;-6.262;2024-03-08T06:10:52;100775.94;;;3.57;100.00
28167;BME280;15455;53.376;-6.262;2024-03-08T06:13:38;100765.56;;;3.54;100.00
28167;BME280;15455;53.376;-6.262;2024-03-08T06:16:24;100763.69;;;3.48;100.00
28167;BME280;15455;53.376;-6.262;2024-03-08T06:19:10;100764.44;;;3.44;100.00
28167;BME280;15455;53.376;-6.262;2024-03-08T06:21:55;100754.84;;;3.40;100.00
28167;BME280;15455;53.376;-6.262;2024-03-08T06:24:41;100751.41;;;3.40;100.00
28167;BME280;15455;53.376;-6.262;2024-03-08T06:27:27;100755.69;;;3.39;100.00
28167;BME280;15455;53.376;-6.262;2024-03-08T06:30:13;100746.28;;;3.41;100.00
28167;BME280;15455;53.376;-6.262;2024-03-08T06:32:59;100746.28;;;3.41;100.00
28167;BME280;15455;53.376;-6.262;2024-03-08T06:35:44;100748.75;;;3.37;100.00
28167;BME280;15455;53.376;-6.262;2024-03-08T06:38:30;100741.81;;;3.34;100.00
28167;BME280;15455;53.376;-6.262;2024-03-08T06:41:17;100743.56;;;3.35;100.00
28167;BME280;15455;53.376;-6.262;2024-03-08T06:44:02;100743.56;;;3.35;100.00
28167;BME280;15455;53.376;-6.262;2024-03-08T06:46:48;100740.97;;;3.35;100.00
28167;BME280;15455;53.376;-6.262;2024-03-08T06:49:33;100736.59;;;3.33;100.00
28167;BME280;15455;53.376;-6.262;2024-03-08T06:52:19;100736.47;;;3.28;100.00
28167;BME280;15455;53.376;-6.262;2024-03-08T06:55:04;100733.72;;;3.22;100.00
28167;BME280;15455;53.376;-6.262;2024-03-08T06:57:50;100734.56;;;3.21;100.00
28167;BME280;15455;53.376;-6.262;2024-03-08T07:00:36;100726.75;;;3.19;100.00
28167;BME280;15455;53.376;-6.262;2024-03-08T07:03:22;100731.06;;;3.19;100.00
28167;BME280;15455;53.376;-6.262;2024-03-08T07:06:08;100727.66;;;3.20;100.00
28167;BME280;15455;53.376;-6.262;2024-03-08T07:08:53;100725.97;;;3.22;100.00
28167;BME280;15455;53.376;-6.262;2024-03-08T07:11:39;100731.22;;;3.25;100.00
28167;BME280;15455;53.376;-6.262;2024-03-08T07:14:29;100729.56;;;3.27;100.00
28167;BME280;15455;53.376;-6.262;2024-03-08T07:17:16;100733.13;;;3.32;100.00
28167;BME280;15455;53.376;-6.262;2024-03-08T07:20:02;100735.16;;;3.42;100.00
28167;BME280;15455;53.376;-6.262;2024-03-08T07:22:53;100729.34;;;3.51;100.00
28167;BME280;15455;53.376;-6.262;2024-03-08T07:25:39;100727.72;;;3.55;100.00
28167;BME280;15455;53.376;-6.262;2024-03-08T07:28:25;100726.91;;;3.57;100.00
28167;BME280;15455;53.376;-6.262;2024-03-08T07:31:11;100718.53;;;3.66;100.00
28167;BME280;15455;53.376;-6.262;2024-03-08T07:34:11;100716.78;;;3.65;100.00
28167;BME280;15455;53.376;-6.262;2024-03-08T07:36:58;100716.75;;;3.63;100.00
28167;BME280;15455;53.376;-6.262;2024-03-08T07:39:45;100709.03;;;3.65;100.00
28167;BME280;15455;53.376;-6.262;2024-03-08T07:42:30;100712.56;;;3.67;100.00
28167;BME280;15455;53.376;-6.262;2024-03-08T07:45:16;100718.66;;;3.71;100.00
28167;BME280;15455;53.376;-6.262;2024-03-08T07:48:01;100716.09;;;3.72;100.00
28167;BME280;15455;53.376;-6.262;2024-03-08T07:50:48;100713.53;;;3.72;100.00
28167;BME280;15455;53.376;-6.262;2024-03-08T07:53:35;100716.09;;;3.72;100.00
28167;BME280;15455;53.376;-6.262;2024-03-08T07:56:21;100712.69;;;3.73;100.00
28167;BME280;15455;53.376;-6.262;2024-03-08T07:59:07;100709.28;;;3.74;100.00
28167;BME280;15455;53.376;-6.262;2024-03-08T08:01:53;100705.91;;;3.78;100.00
28167;BME280;15455;53.376;-6.262;2024-03-08T08:04:38;100700.00;;;3.82;100.00
28167;BME280;15455;53.376;-6.262;2024-03-08T08:07:24;100700.13;;;3.87;100.00
28167;BME280;15455;53.376;-6.262;2024-03-08T08:10:10;100696.78;;;3.93;100.00
28167;BME280;15455;53.376;-6.262;2024-03-08T08:13:04;100694.50;;;4.05;100.00
28167;BME280;15455;53.376;-6.262;2024-03-08T08:15:53;100692.25;;;4.19;100.00
28167;BME280;15455;53.376;-6.262;2024-03-08T08:18:38;100691.69;;;4.32;100.00
28167;BME280;15455;53.376;-6.262;2024-03-08T08:21:24;100679.97;;;4.48;100.00
28167;BME280;15455;53.376;-6.262;2024-03-08T08:24:11;100674.28;;;4.65;100.00
28167;BME280;15455;53.376;-6.262;2024-03-08T08:26:57;100670.97;;;4.72;100.00
28167;BME280;15455;53.376;-6.262;2024-03-08T08:29:42;100665.94;;;4.78;100.00
28167;BME280;15455;53.376;-6.262;2024-03-08T08:32:28;100660.81;;;4.81;100.00
28167;BME280;15455;53.376;-6.262;2024-03-08T08:35:15;100658.38;;;4.89;100.00
28167;BME280;15455;53.376;-6.262;2024-03-08T08:38:01;100652.63;;;5.04;100.00
28167;BME280;15455;53.376;-6.262;2024-03-08T08:40:49;100642.59;;;5.22;100.00
28167;BME280;15455;53.376;-6.262;2024-03-08T08:43:35;100645.50;;;5.39;100.00
28167;BME280;15455;53.376;-6.262;2024-03-08T08:46:25;100633.69;;;5.55;100.00
28167;BME280;15455;53.376;-6.262;2024-03-08T08:49:11;100626.13;;;5.69;100.00
28167;BME280;15455;53.376;-6.262;2024-03-08T08:52:00;100633.28;;;5.86;100.00
28167;BME280;15455;53.376;-6.262;2024-03-08T08:54:56;100622.97;;;5.90;100.00
28167;BME280;15455;53.376;-6.262;2024-03-08T08:57:42;100619.47;;;5.85;100.00
28167;BME280;15455;53.376;-6.262;2024-03-08T09:00:28;100613.38;;;5.83;100.00
28167;BME280;15455;53.376;-6.262;2024-03-08T09:03:16;100603.00;;;5.82;100.00
28167;BME280;15455;53.376;-6.262;2024-03-08T09:06:06;100599.56;;;5.81;100.00
28167;BME280;15455;53.376;-6.262;2024-03-08T09:08:55;100590.16;;;5.88;100.00
28167;BME280;15455;53.376;-6.262;2024-03-08T09:11:41;100584.31;;;6.00;100.00
28167;BME280;15455;53.376;-6.262;2024-03-08T09:14:27;100583.66;;;6.16;100.00
28167;BME280;15455;53.376;-6.262;2024-03-08T09:17:13;100588.97;;;6.25;100.00
28167;BME280;15455;53.376;-6.262;2024-03-08T09:20:02;100582.06;;;6.28;100.00
28167;BME280;15455;53.376;-6.262;2024-03-08T09:22:50;100576.00;;;6.25;100.00
28167;BME280;15455;53.376;-6.262;2024-03-08T09:25:35;100576.03;;;6.27;100.00
28167;BME280;15455;53.376;-6.262;2024-03-08T09:28:21;100577.81;;;6.33;100.00
28167;BME280;15455;53.376;-6.262;2024-03-08T09:31:07;100571.78;;;6.35;100.00
28167;BME280;15455;53.376;-6.262;2024-03-08T09:33:53;100569.34;;;6.46;100.00
28167;BME280;15455;53.376;-6.262;2024-03-08T09:36:38;100568.72;;;6.69;100.00
28167;BME280;15455;53.376;-6.262;2024-03-08T09:39:23;100556.84;;;6.92;100.00
28167;BME280;15455;53.376;-6.262;2024-03-08T09:42:12;100557.03;;;7.14;100.00
28167;BME280;15455;53.376;-6.262;2024-03-08T09:45:00;100551.78;;;7.08;100.00
28167;BME280;15455;53.376;-6.262;2024-03-08T09:47:45;100547.41;;;7.02;100.00
28167;BME280;15455;53.376;-6.262;2024-03-08T09:50:32;100548.22;;;6.93;100.00
28167;BME280;15455;53.376;-6.262;2024-03-08T09:53:18;100542.88;;;6.81;100.00
28167;BME280;15455;53.376;-6.262;2024-03-08T09:56:04;100538.53;;;6.78;100.00
28167;BME280;15455;53.376;-6.262;2024-03-08T09:58:50;100535.16;;;6.86;100.00
28167;BME280;15455;53.376;-6.262;2024-03-08T10:01:54;100541.28;;;6.92;100.00
28167;BME280;15455;53.376;-6.262;2024-03-08T10:04:44;100522.22;;;6.90;100.00
28167;BME280;15455;53.376;-6.262;2024-03-08T10:07:33;100523.91;;;6.85;100.00
28167;BME280;15455;53.376;-6.262;2024-03-08T10:10:19;100523.00;;;6.80;100.00
28167;BME280;15455;53.376;-6.262;2024-03-08T10:13:09;100518.66;;;6.76;100.00
28167;BME280;15455;53.376;-6.262;2024-03-08T10:15:55;100523.00;;;6.82;100.00
28167;BME280;15455;53.376;-6.262;2024-03-08T10:18:40;100508.38;;;6.88;100.00
28167;BME280;15455;53.376;-6.262;2024-03-08T10:21:26;100510.16;;;6.95;100.00
28167;BME280;15455;53.376;-6.262;2024-03-08T10:24:12;100507.56;;;6.95;100.00
28167;BME280;15455;53.376;-6.262;2024-03-08T10:27:02;100506.72;;;6.95;100.00
28167;BME280;15455;53.376;-6.262;2024-03-08T10:29:50;100500.63;;;6.93;100.00
28167;BME280;15455;53.376;-6.262;2024-03-08T10:32:37;100503.34;;;7.05;100.00
28167;BME280;15455;53.376;-6.262;2024-03-08T10:35:23;100499.13;;;7.23;100.00
28167;BME280;15455;53.376;-6.262;2024-03-08T10:38:13;100489.75;;;7.45;100.00
28167;BME280;15455;53.376;-6.262;2024-03-08T10:41:03;100488.16;;;7.67;100.00
28167;BME280;15455;53.376;-6.262;2024-03-08T10:44:19;100483.09;;;7.93;100.00
28167;BME280;15455;53.376;-6.262;2024-03-08T10:47:26;100493.50;;;8.01;100.00
28167;BME280;15455;53.376;-6.262;2024-03-08T10:50:19;100481.38;;;8.02;100.00
28167;BME280;15455;53.376;-6.262;2024-03-08T10:53:10;100490.06;;;8.04;100.00
28167;BME280;15455;53.376;-6.262;2024-03-08T10:55:57;100487.38;;;7.90;100.00
28167;BME280;15455;53.376;-6.262;2024-03-08T10:58:44;100485.59;;;7.72;100.00
28167;BME280;15455;53.376;-6.262;2024-03-08T11:01:30;100486.41;;;7.61;100.00
28167;BME280;15455;53.376;-6.262;2024-03-08T11:04:16;100481.16;;;7.54;100.00
28167;BME280;15455;53.376;-6.262;2024-03-08T11:07:05;100475.91;;;7.46;100.00
28167;BME280;15455;53.376;-6.262;2024-03-08T11:09:53;100476.72;;;7.34;100.00
28167;BME280;15455;53.376;-6.262;2024-03-08T11:12:39;100480.97;;;7.21;100.00
28167;BME280;15455;53.376;-6.262;2024-03-08T11:15:25;100480.00;;;7.10;100.00
28167;BME280;15455;53.376;-6.262;2024-03-08T11:18:11;100480.75;;;6.92;100.00
28167;BME280;15455;53.376;-6.262;2024-03-08T11:20:58;100472.84;;;6.78;100.00
28167;BME280;15455;53.376;-6.262;2024-03-08T11:24:02;100465.06;;;6.81;100.00
28167;BME280;15455;53.376;-6.262;2024-03-08T11:26:56;100464.31;;;6.98;100.00
28167;BME280;15455;53.376;-6.262;2024-03-08T11:29:42;100459.34;;;7.21;100.00
28167;BME280;15455;53.376;-6.262;2024-03-08T11:32:29;100451.63;;;7.35;100.00
28167;BME280;15455;53.376;-6.262;2024-03-08T11:35:20;100452.53;;;7.46;100.00
28167;BME280;15455;53.376;-6.262;2024-03-08T11:38:08;100443.91;;;7.45;100.00
28167;BME280;15455;53.376;-6.262;2024-03-08T11:40:57;100441.31;;;7.44;100.00
28167;BME280;15455;53.376;-6.262;2024-03-08T11:43:42;100447.38;;;7.49;100.00
28167;BME280;15455;53.376;-6.262;2024-03-08T11:46:28;100448.19;;;7.42;100.00
28167;BME280;15455;53.376;-6.262;2024-03-08T11:49:14;100443.84;;;7.38;100.00
28167;BME280;15455;53.376;-6.262;2024-03-08T11:51:59;100444.69;;;7.34;100.00
28167;BME280;15455;53.376;-6.262;2024-03-08T11:54:53;100446.44;;;7.38;100.00
28167;BME280;15455;53.376;-6.262;2024-03-08T11:57:40;100441.19;;;7.28;100.00
28167;BME280;15455;53.376;-6.262;2024-03-08T12:00:27;100447.19;;;7.18;100.00
28167;BME280;15455;53.376;-6.262;2024-03-08T12:03:20;100437.63;;;7.08;100.00
28167;BME280;15455;53.376;-6.262;2024-03-08T12:06:06;100439.41;;;7.18;100.00
28167;BME280;15455;53.376;-6.262;2024-03-08T12:08:54;100445.53;;;7.28;100.00
28167;BME280;15455;53.376;-6.262;2024-03-08T12:11:40;100437.78;;;7.37;100.00
28167;BME280;15455;53.376;-6.262;2024-03-08T12:14:25;100433.44;;;7.35;100.00
28167;BME280;15455;53.376;-6.262;2024-03-08T12:17:11;100428.28;;;7.41;100.00
28167;BME280;15455;53.376;-6.262;2024-03-08T12:20:11;100417.03;;;7.42;100.00
28167;BME280;15455;53.376;-6.262;2024-03-08T12:22:58;100415.28;;;7.39;100.00
28167;BME280;15455;53.376;-6.262;2024-03-08T12:25:44;100414.34;;;7.23;100.00
28167;BME280;15455;53.376;-6.262;2024-03-08T12:28:29;100408.28;;;7.24;100.00
28167;BME280;15455;53.376;-6.262;2024-03-08T12:31:18;100409.22;;;7.34;100.00
28167;BME280;15455;53.376;-6.262;2024-03-08T12:34:07;100400.59;;;7.43;100.00
28167;BME280;15455;53.376;-6.262;2024-03-08T12:36:55;100401.53;;;7.51;100.00
28167;BME280;15455;53.376;-6.262;2024-03-08T12:39:41;100391.13;;;7.51;100.00
28167;BME280;15455;53.376;-6.262;2024-03-08T12:42:31;100387.63;;;7.43;100.00
28167;BME280;15455;53.376;-6.262;2024-03-08T12:45:17;100378.06;;;7.31;100.00
28167;BME280;15455;53.376;-6.262;2024-03-08T12:48:02;100380.59;;;7.25;100.00
28167;BME280;15455;53.376;-6.262;2024-03-08T12:50:49;100381.41;;;7.13;100.00
28167;BME280;15455;53.376;-6.262;2024-03-08T12:53:36;100378.81;;;7.10;100.00
28167;BME280;15455;53.376;-6.262;2024-03-08T12:56:32;100377.06;;;7.09;100.00
28167;BME280;15455;53.376;-6.262;2024-03-08T12:59:19;100376.22;;;7.10;100.00
28167;BME280;15455;53.376;-6.262;2024-03-08T13:02:05;100377.94;;;7.06;100.00
28167;BME280;15455;53.376;-6.262;2024-03-08T13:04:51;100370.09;;;7.02;100.00
28167;BME280;15455;53.376;-6.262;2024-03-08T13:07:43;100361.44;;;6.97;100.00
28167;BME280;15455;53.376;-6.262;2024-03-08T13:10:32;100359.69;;;6.99;100.00
28167;BME280;15455;53.376;-6.262;2024-03-08T13:13:18;100357.09;;;6.97;100.00
28167;BME280;15455;53.376;-6.262;2024-03-08T13:16:05;100354.50;;;6.99;100.00
28167;BME280;15455;53.376;-6.262;2024-03-08T13:18:54;100344.97;;;6.93;100.00
28167;BME280;15455;53.376;-6.262;2024-03-08T13:21:40;100349.28;;;6.92;100.00
28167;BME280;15455;53.376;-6.262;2024-03-08T13:24:25;100344.97;;;6.96;100.00
28167;BME280;15455;53.376;-6.262;2024-03-08T13:27:11;100338.94;;;6.97;100.00
28167;BME280;15455;53.376;-6.262;2024-03-08T13:30:05;100338.09;;;7.03;100.00
28167;BME280;15455;53.376;-6.262;2024-03-08T13:32:52;100327.72;;;7.01;100.00
28167;BME280;15455;53.376;-6.262;2024-03-08T13:35:39;100325.13;;;7.01;100.00
28167;BME280;15455;53.376;-6.262;2024-03-08T13:38:26;100317.34;;;7.04;100.00
28167;BME280;15455;53.376;-6.262;2024-03-08T13:41:12;100324.31;;;7.10;100.00
28167;BME280;15455;53.376;-6.262;2024-03-08T13:44:00;100314.75;;;7.04;100.00
28167;BME280;15455;53.376;-6.262;2024-03-08T13:46:46;100309.56;;;7.03;100.00
28167;BME280;15455;53.376;-6.262;2024-03-08T13:49:37;100304.34;;;6.93;100.00
28167;BME280;15455;53.376;-6.262;2024-03-08T13:52:23;100299.09;;;6.89;100.00
28167;BME280;15455;53.376;-6.262;2024-03-08T13:55:10;100292.19;;;6.86;100.00
28167;BME280;15455;53.376;-6.262;2024-03-08T13:57:58;100293.06;;;6.88;100.00
28167;BME280;15455;53.376;-6.262;2024-03-08T14:00:45;100286.13;;;6.87;100.00
28167;BME280;15455;53.376;-6.262;2024-03-08T14:03:33;100283.50;;;6.80;100.00
28167;BME280;15455;53.376;-6.262;2024-03-08T14:06:18;100279.19;;;6.80;100.00
28167;BME280;15455;53.376;-6.262;2024-03-08T14:09:07;100273.13;;;6.80;100.00
28167;BME280;15455;53.376;-6.262;2024-03-08T14:11:53;100272.28;;;6.84;100.00
28167;BME280;15455;53.376;-6.262;2024-03-08T14:14:41;100265.38;;;6.84;100.00
28167;BME280;15455;53.376;-6.262;2024-03-08T14:17:27;100267.13;;;6.85;100.00
28167;BME280;15455;53.376;-6.262;2024-03-08T14:20:16;100259.34;;;6.87;100.00
28167;BME280;15455;53.376;-6.262;2024-03-08T14:23:03;100254.16;;;6.91;100.00